Terminal Aerodrome Forecast
Issued by NWS Buffalo, NY

Home | Current Version | Previous Version | Text Only | Print | Product List | Glossary On
Versions: 1 2 3 4 5 6 7 8 9 10 11 12 13 14 15 16 17 18 19 20 21 22 23 24 25 26 27 28 29
609
FTUS41 KBUF 120520
TAFBUF
TAF
KBUF 120520Z 1206/1306 24007KT P6SM FEW025
     FM120800 25008KT 5SM -SN OVC040
     FM121200 24007KT 1 1/2SM -SN OVC015
     FM121500 24010G21KT 1 1/2SM -SN OVC015
     FM121800 23017G27KT 1/4SM +SN BLSN OVC007
     FM130100 29015G25KT 2SM -SN OVC015
     FM130500 30011KT 6SM -SN OVC025=

USA.gov is the U.S. government's official web portal to all federal, state and local government web resources and services.